Time;durP1;ratioP1;P1;durP2;ratioP2;P2;SDS_P1;SDS_P2;PMS_P1;PMS_P2;Temp;Humidity;BMP_temperature;BMP_pressure;BME280_temperature;BME280_humidity;BME280_pressure;Samples;Min_cycle;Max_cycle;Signal;HPM_P1;HPM_P2
2021/03/20 07:18:36;;;;;;;109.95;59.40;;;;;;;;;;5068620;23;20057;-67
2021/03/20 07:21:03;;;;;;;94.20;53.67;;;;;;;;;;4912181;29;20044;-67
2021/03/20 07:23:30;;;;;;;93.68;55.03;;;;;;;;;;4903981;29;20032;-69
2021/03/20 07:26:09;;;;;;;92.22;52.50;;;;;;;;;;4917394;29;20033;-65
2021/03/20 07:28:36;;;;;;;88.13;50.38;;;;;;;;;;4906764;29;20036;-68
2021/03/20 07:31:07;;;;;;;80.70;47.38;;;;;;;;;;4902129;29;20088;-66
2021/03/20 07:33:36;;;;;;;77.60;46.60;;;;;;;;;;4901733;29;20394;-66
2021/03/20 07:36:17;;;;;;;82.22;48.03;;;;;;;;;;4901812;29;20035;-67
2021/03/20 07:38:44;;;;;;;76.25;45.88;;;;;;;;;;4901666;29;20024;-67
2021/03/20 07:41:12;;;;;;;78.97;47.13;;;;;;;;;;4908068;29;20383;-68
2021/03/20 07:43:38;;;;;;;76.95;47.10;;;;;;;;;;4910161;29;20048;-70
2021/03/20 07:46:11;;;;;;;80.68;46.95;;;;;;;;;;4891731;29;20448;-67
2021/03/20 07:48:38;;;;;;;79.00;46.03;;;;;;;;;;4908557;29;20112;-66
2021/03/20 07:51:05;;;;;;;78.22;45.30;;;;;;;;;;4908544;29;20055;-67
2021/03/20 07:53:38;;;;;;;73.53;43.97;;;;;;;;;;4903666;29;20029;-64
2021/03/20 07:56:07;;;;;;;79.70;45.58;;;;;;;;;;4907811;29;20547;-66
2021/03/20 07:58:38;;;;;;;87.88;50.92;;;;;;;;;;4909364;29;20023;-65
2021/03/20 08:01:15;;;;;;;86.68;49.03;;;;;;;;;;4891378;29;20021;-65
2021/03/20 08:03:56;;;;;;;80.05;47.53;;;;;;;;;;4908507;29;20476;-64
2021/03/20 08:06:31;;;;;;;80.93;47.47;;;;;;;;;;4908633;29;20021;-66
2021/03/20 08:09:12;;;;;;;81.50;47.17;;;;;;;;;;4909711;29;20017;-66
2021/03/20 08:11:38;;;;;;;88.53;52.38;;;;;;;;;;4914681;29;20033;-67
2021/03/20 08:14:19;;;;;;;85.95;48.97;;;;;;;;;;4915515;29;20024;-66
2021/03/20 08:16:45;;;;;;;92.22;52.58;;;;;;;;;;4914024;29;20020;-67
2021/03/20 08:19:13;;;;;;;79.10;46.92;;;;;;;;;;4917387;29;20071;-66
2021/03/20 08:21:51;;;;;;;82.40;47.85;;;;;;;;;;4900175;29;20032;-67
2021/03/20 08:24:20;;;;;;;76.32;46.20;;;;;;;;;;4898392;29;20681;-68
2021/03/20 08:26:59;;;;;;;73.45;44.50;;;;;;;;;;4893975;29;20036;-66
2021/03/20 08:29:44;;;;;;;68.75;40.15;;;;;;;;;;4891683;29;20157;-66
2021/03/20 08:32:30;;;;;;;62.30;37.28;;;;;;;;;;4912204;29;20115;-66
2021/03/20 08:35:17;;;;;;;63.08;37.95;;;;;;;;;;4895494;29;20448;-66
2021/03/20 08:37:55;;;;;;;66.57;40.67;;;;;;;;;;4915826;29;20028;-66
2021/03/20 08:40:48;;;;;;;65.22;39.45;;;;;;;;;;4900510;29;20496;-68
2021/03/20 08:43:14;;;;;;;;;;;;;;;;;;4918601;29;20039;-66
2021/03/20 08:45:40;;;;;;;65.28;39.35;;;;;;;;;;4919347;29;20339;-67
2021/03/20 08:48:09;;;;;;;65.38;37.83;;;;;;;;;;4918989;29;20488;-65
2021/03/20 08:50:54;;;;;;;64.50;36.88;;;;;;;;;;4915119;29;20039;-67
2021/03/20 08:53:31;;;;;;;75.60;42.42;;;;;;;;;;4917191;29;20038;-67
2021/03/20 08:56:04;;;;;;;79.85;45.13;;;;;;;;;;4914359;29;20107;-67
2021/03/20 08:58:36;;;;;;;66.30;40.05;;;;;;;;;;4891110;29;20076;-70
2021/03/20 09:01:02;;;;;;;;;;;;;;;;;;4907609;29;20421;-68
2021/03/20 09:03:44;;;;;;;67.22;40.08;;;;;;;;;;4909153;29;20027;-70
2021/03/20 09:06:33;;;;;;;82.53;42.63;;;;;;;;;;4900124;29;20032;-68
2021/03/20 09:09:07;;;;;;;80.55;46.90;;;;;;;;;;4888438;29;20041;-68
2021/03/20 09:11:56;;;;;;;75.05;46.22;;;;;;;;;;4911535;29;20032;-65
2021/03/20 09:14:26;;;;;;;68.00;40.75;;;;;;;;;;4897015;29;20119;-67
2021/03/20 09:16:58;;;;;;;69.00;41.97;;;;;;;;;;4900466;29;20028;-67
2021/03/20 09:19:32;;;;;;;74.27;45.10;;;;;;;;;;4900263;29;20044;-68
2021/03/20 09:22:00;;;;;;;81.45;50.05;;;;;;;;;;4882920;29;20437;-69
2021/03/20 09:24:27;;;;;;;59.45;35.63;;;;;;;;;;4882512;29;20417;-68
2021/03/20 09:26:56;;;;;;;54.10;32.78;;;;;;;;;;4899241;29;20069;-68
2021/03/20 09:29:26;;;;;;;40.42;25.77;;;;;;;;;;4899439;29;20060;-69
2021/03/20 09:31:55;;;;;;;55.42;32.88;;;;;;;;;;4881310;29;20029;-68
2021/03/20 09:34:27;;;;;;;54.95;35.20;;;;;;;;;;4899905;29;20072;-69
2021/03/20 09:36:53;;;;;;;48.67;30.77;;;;;;;;;;4911646;29;20440;-69
2021/03/20 09:39:35;;;;;;;50.47;31.67;;;;;;;;;;4904649;29;20687;-70
2021/03/20 09:42:02;;;;;;;50.67;30.05;;;;;;;;;;4899140;29;20053;-67
2021/03/20 09:44:30;;;;;;;48.15;30.10;;;;;;;;;;4916406;29;20355;-69
2021/03/20 09:46:58;;;;;;;51.53;30.67;;;;;;;;;;4916944;29;20027;-69
2021/03/20 09:49:24;;;;;;;44.13;28.23;;;;;;;;;;4898157;29;20111;-70
2021/03/20 09:51:51;;;;;;;49.55;29.02;;;;;;;;;;4917854;29;20028;-71
2021/03/20 09:54:31;;;;;;;51.50;29.92;;;;;;;;;;4917724;29;20103;-69
2021/03/20 09:56:57;;;;;;;44.75;27.02;;;;;;;;;;4917262;29;20047;-71
2021/03/20 09:59:30;;;;;;;51.78;30.60;;;;;;;;;;4900364;29;20024;-69
2021/03/20 10:01:57;;;;;;;48.00;28.80;;;;;;;;;;4900383;29;20024;-69
2021/03/20 10:04:26;;;;;;;51.90;31.08;;;;;;;;;;4900902;29;20100;-70
2021/03/20 10:07:11;;;;;;;47.22;28.23;;;;;;;;;;4900215;29;20025;-70
2021/03/20 10:09:56;;;;;;;40.72;25.30;;;;;;;;;;4899889;29;20028;-68
2021/03/20 10:12:52;;;;;;;42.53;25.13;;;;;;;;;;4914487;29;20380;-69
2021/03/20 10:15:46;;;;;;;39.78;24.42;;;;;;;;;;4896583;29;20036;-69
2021/03/20 10:18:12;;;;;;;41.85;24.75;;;;;;;;;;4895901;29;20044;-69
2021/03/20 10:20:55;;;;;;;28.55;16.50;;;;;;;;;;4899839;29;20053;-68
2021/03/20 10:23:42;;;;;;;30.70;18.33;;;;;;;;;;4916934;29;20028;-69
2021/03/20 10:26:22;;;;;;;36.97;20.38;;;;;;;;;;4916595;29;20016;-69
2021/03/20 10:29:02;;;;;;;27.98;16.63;;;;;;;;;;4899030;29;20024;-68
2021/03/20 10:31:29;;;;;;;29.30;17.55;;;;;;;;;;4897366;29;20119;-67
2021/03/20 10:34:03;;;;;;;33.58;17.05;;;;;;;;;;4915820;29;20076;-67
2021/03/20 10:36:33;;;;;;;20.27;11.63;;;;;;;;;;4917288;29;20020;-69
2021/03/20 10:38:59;;;;;;;24.60;13.50;;;;;;;;;;4917646;29;20083;-71
2021/03/20 10:41:32;;;;;;;25.30;14.52;;;;;;;;;;4900293;29;20021;-70
2021/03/20 10:44:16;;;;;;;26.63;15.13;;;;;;;;;;4900441;29;20024;-69
2021/03/20 10:46:42;;;;;;;28.20;16.02;;;;;;;;;;4900636;29;20123;-71
2021/03/20 10:49:14;;;;;;;20.65;12.90;;;;;;;;;;4917148;29;20024;-71
2021/03/20 10:51:42;;;;;;;24.02;13.38;;;;;;;;;;4900540;29;20039;-71
2021/03/20 10:54:18;;;;;;;17.88;11.45;;;;;;;;;;4916992;29;20035;-70
2021/03/20 10:56:45;;;;;;;22.05;12.65;;;;;;;;;;4899829;29;20021;-71
2021/03/20 10:59:13;;;;;;;19.42;11.23;;;;;;;;;;4915924;29;20148;-70
2021/03/20 11:01:39;;;;;;;21.63;12.15;;;;;;;;;;4915928;29;20048;-72
2021/03/20 11:04:06;;;;;;;17.90;11.80;;;;;;;;;;4899727;29;20016;-72
2021/03/20 11:06:32;;;;;;;30.90;16.63;;;;;;;;;;4916918;29;20027;-71
2021/03/20 11:09:08;;;;;;;20.90;12.50;;;;;;;;;;4916652;29;20024;-70
2021/03/20 11:11:35;;;;;;;24.15;15.25;;;;;;;;;;4899719;29;20431;-69
2021/03/20 11:14:09;;;;;;;25.55;14.38;;;;;;;;;;4899991;29;20475;-73
2021/03/20 11:16:41;;;;;;;15.75;10.48;;;;;;;;;;4916305;29;20039;-73
2021/03/20 11:19:07;;;;;;;;;;;;;;;;;;4899660;29;20075;-71
2021/03/20 11:21:36;;;;;;;15.77;9.93;;;;;;;;;;4917489;29;20335;-72
2021/03/20 11:24:03;;;;;;;16.25;11.48;;;;;;;;;;4899581;29;20040;-71
2021/03/20 11:26:32;;;;;;;23.42;12.48;;;;;;;;;;4916836;29;20376;-71
2021/03/20 11:28:59;;;;;;;35.70;20.17;;;;;;;;;;4898681;29;20543;-71
2021/03/20 11:31:27;;;;;;;18.25;11.63;;;;;;;;;;4916012;29;20111;-74
2021/03/20 11:33:53;;;;;;;20.60;12.82;;;;;;;;;;4900275;29;20024;-73
2021/03/20 11:36:22;;;;;;;24.65;14.38;;;;;;;;;;4899878;29;20476;-72
2021/03/20 11:38:49;;;;;;;13.10;8.68;;;;;;;;;;4898729;29;20039;-72
2021/03/20 11:41:17;;;;;;;11.95;8.20;;;;;;;;;;4916797;29;20032;-72
2021/03/20 11:43:46;;;;;;;19.65;11.02;;;;;;;;;;4899197;29;20063;-72
2021/03/20 11:46:24;;;;;;;20.70;11.98;;;;;;;;;;4899624;29;20052;-70
2021/03/20 11:48:50;;;;;;;23.35;13.18;;;;;;;;;;4916871;29;20091;-72
2021/03/20 11:51:21;;;;;;;24.63;14.68;;;;;;;;;;4899410;29;20383;-74
2021/03/20 11:53:49;;;;;;;25.38;14.73;;;;;;;;;;4900020;29;20088;-72
2021/03/20 11:56:20;;;;;;;23.50;14.18;;;;;;;;;;4900945;29;20425;-73
2021/03/20 11:58:54;;;;;;;24.48;14.20;;;;;;;;;;4916490;29;20024;-70
2021/03/20 12:01:33;;;;;;;26.33;15.20;;;;;;;;;;4900932;29;20029;-74
2021/03/20 12:04:00;;;;;;;25.10;14.25;;;;;;;;;;4903087;29;20024;-71
2021/03/20 12:06:28;;;;;;;21.83;13.40;;;;;;;;;;4903451;29;20028;-75
2021/03/20 12:08:56;;;;;;;27.20;16.45;;;;;;;;;;4903473;29;20439;-71
2021/03/20 12:11:23;;;;;;;25.33;14.60;;;;;;;;;;4920023;29;20107;-70
2021/03/20 12:13:54;;;;;;;17.30;11.75;;;;;;;;;;4903101;29;20032;-73
2021/03/20 12:16:37;;;;;;;19.65;12.43;;;;;;;;;;4903118;29;20031;-72
2021/03/20 12:19:05;;;;;;;20.85;12.90;;;;;;;;;;4913769;29;20123;-73
2021/03/20 12:21:31;;;;;;;21.42;13.43;;;;;;;;;;4904950;29;20027;-74
2021/03/20 12:23:59;;;;;;;25.17;13.35;;;;;;;;;;4894772;29;20075;-73
2021/03/20 12:26:36;;;;;;;28.33;15.90;;;;;;;;;;4917784;29;20033;-74
2021/03/20 12:29:10;;;;;;;25.52;15.15;;;;;;;;;;4900590;29;20083;-73
2021/03/20 12:31:36;;;;;;;22.70;14.45;;;;;;;;;;4901788;29;20472;-73
2021/03/20 12:34:02;;;;;;;25.20;15.57;;;;;;;;;;4918317;29;20032;-74
2021/03/20 12:36:40;;;;;;;21.73;14.70;;;;;;;;;;4917735;29;20506;-73
2021/03/20 12:39:08;;;;;;;23.92;13.65;;;;;;;;;;4883734;29;20028;-72
2021/03/20 12:41:35;;;;;;;19.60;12.90;;;;;;;;;;4884740;29;20123;-73
2021/03/20 12:44:09;;;;;;;20.33;13.10;;;;;;;;;;4902280;29;20439;-73
2021/03/20 12:46:35;;;;;;;15.55;10.15;;;;;;;;;;4899432;29;20025;-73
2021/03/20 12:49:01;;;;;;;21.52;12.35;;;;;;;;;;4901229;29;20381;-73
2021/03/20 12:51:28;;;;;;;33.03;19.50;;;;;;;;;;4901094;29;20488;-74
2021/03/20 12:53:54;;;;;;;24.70;15.02;;;;;;;;;;4901063;29;20463;-75
2021/03/20 12:56:20;;;;;;;16.05;10.07;;;;;;;;;;4901459;29;20020;-75
2021/03/20 12:58:46;;;;;;;17.70;10.55;;;;;;;;;;4918386;29;20028;-75
2021/03/20 13:01:13;;;;;;;19.65;11.13;;;;;;;;;;4901346;29;20021;-73
2021/03/20 13:03:39;;;;;;;16.58;10.65;;;;;;;;;;4919075;29;20028;-74
2021/03/20 13:06:05;;;;;;;22.42;13.02;;;;;;;;;;4919171;29;20087;-74
2021/03/20 13:08:34;;;;;;;19.35;13.10;;;;;;;;;;4901699;29;20107;-74
2021/03/20 13:11:00;;;;;;;24.63;13.43;;;;;;;;;;4901760;29;20027;-74
2021/03/20 13:13:27;;;;;;;23.67;13.38;;;;;;;;;;4918266;29;20020;-74
2021/03/20 13:15:53;;;;;;;18.83;11.35;;;;;;;;;;4901480;29;20443;-73
2021/03/20 13:18:19;;;;;;;22.02;13.88;;;;;;;;;;4901114;29;20134;-73
2021/03/20 13:20:45;;;;;;;20.15;12.48;;;;;;;;;;4918551;29;20024;-76
2021/03/20 13:23:11;;;;;;;23.15;13.40;;;;;;;;;;4901514;29;20028;-74
2021/03/20 13:25:39;;;;;;;25.15;13.82;;;;;;;;;;4901543;29;20108;-75
2021/03/20 13:28:06;;;;;;;21.17;14.15;;;;;;;;;;4901272;29;20472;-76
2021/03/20 13:30:34;;;;;;;28.20;15.98;;;;;;;;;;4918712;29;20024;-75
2021/03/20 13:33:00;;;;;;;23.38;13.55;;;;;;;;;;4901307;29;20032;-74
2021/03/20 13:35:27;;;;;;;20.95;12.95;;;;;;;;;;4901326;29;20028;-75
2021/03/20 13:37:53;;;;;;;20.05;11.98;;;;;;;;;;4902017;29;20035;-74
2021/03/20 13:40:24;;;;;;;20.95;12.05;;;;;;;;;;4901052;29;20020;-75
2021/03/20 13:42:50;;;;;;;19.42;12.20;;;;;;;;;;4900997;29;20031;-76
2021/03/20 13:45:18;;;;;;;13.68;9.65;;;;;;;;;;4901161;29;20468;-75
2021/03/20 13:47:44;;;;;;;16.02;11.05;;;;;;;;;;4901111;29;20028;-75
2021/03/20 13:50:10;;;;;;;17.55;10.75;;;;;;;;;;4900710;29;20023;-75
2021/03/20 13:52:36;;;;;;;18.55;11.60;;;;;;;;;;4901108;29;20039;-75
2021/03/20 13:55:04;;;;;;;16.70;10.20;;;;;;;;;;4900973;29;20084;-74
2021/03/20 13:57:30;;;;;;;18.20;11.80;;;;;;;;;;4917628;29;20024;-72
2021/03/20 13:59:56;;;;;;;14.75;9.75;;;;;;;;;;4917694;29;20095;-72
2021/03/20 14:02:22;;;;;;;17.65;11.55;;;;;;;;;;4901161;29;20480;-71
2021/03/20 14:04:49;;;;;;;19.90;12.82;;;;;;;;;;4918221;29;20040;-73
2021/03/20 14:07:26;;;;;;;17.15;12.18;;;;;;;;;;4900378;29;20036;-71
2021/03/20 14:09:53;;;;;;;23.83;14.35;;;;;;;;;;4899437;29;20048;-72
2021/03/20 14:12:19;;;;;;;18.60;11.45;;;;;;;;;;4899538;29;20024;-73
2021/03/20 14:14:49;;;;;;;22.02;13.40;;;;;;;;;;4899201;29;20385;-74
2021/03/20 14:17:15;;;;;;;36.65;18.95;;;;;;;;;;4898967;29;20119;-71
2021/03/20 14:19:41;;;;;;;16.25;10.00;;;;;;;;;;4915879;29;20112;-74
2021/03/20 14:22:08;;;;;;;17.27;10.50;;;;;;;;;;4899434;29;20080;-72
2021/03/20 14:24:35;;;;;;;15.27;10.00;;;;;;;;;;4915145;29;20024;-72
2021/03/20 14:27:01;;;;;;;18.38;11.55;;;;;;;;;;4899331;29;20036;-70
2021/03/20 14:29:27;;;;;;;43.85;22.80;;;;;;;;;;4916302;29;20020;-74
2021/03/20 14:31:57;;;;;;;28.10;16.60;;;;;;;;;;4898708;29;20036;-72
2021/03/20 14:34:23;;;;;;;38.38;20.23;;;;;;;;;;4899038;29;20065;-72
2021/03/20 14:36:49;;;;;;;24.95;14.98;;;;;;;;;;4915848;29;20027;-71
2021/03/20 14:39:16;;;;;;;16.02;10.45;;;;;;;;;;4915493;29;20024;-69
2021/03/20 14:41:44;;;;;;;17.92;11.05;;;;;;;;;;4915834;29;20043;-72
2021/03/20 14:44:10;;;;;;;12.80;9.30;;;;;;;;;;4915217;29;20461;-72
2021/03/20 14:46:36;;;;;;;22.40;13.02;;;;;;;;;;4915838;29;20032;-70
2021/03/20 14:49:02;;;;;;;27.98;15.68;;;;;;;;;;4899097;29;20043;-71
2021/03/20 14:51:28;;;;;;;37.05;17.63;;;;;;;;;;4915494;29;20027;-68
2021/03/20 14:53:54;;;;;;;29.35;15.88;;;;;;;;;;4915596;29;20084;-71
2021/03/20 14:56:20;;;;;;;19.90;11.73;;;;;;;;;;4898965;29;20496;-70
2021/03/20 14:58:46;;;;;;;22.95;12.65;;;;;;;;;;4915522;29;20024;-71
2021/03/20 15:01:13;;;;;;;17.70;10.75;;;;;;;;;;4915273;29;20429;-71
2021/03/20 15:03:39;;;;;;;22.45;13.45;;;;;;;;;;4916231;29;20032;-72
2021/03/20 15:06:05;;;;;;;15.95;9.90;;;;;;;;;;4898287;29;20028;-71
2021/03/20 15:08:31;;;;;;;20.05;11.77;;;;;;;;;;4916049;29;20056;-72
2021/03/20 15:10:59;;;;;;;17.80;10.68;;;;;;;;;;4899162;29;20391;-73
2021/03/20 15:13:26;;;;;;;25.27;14.55;;;;;;;;;;4898858;29;20175;-70
2021/03/20 15:15:55;;;;;;;14.90;10.48;;;;;;;;;;4916925;29;20502;-73
2021/03/20 15:18:23;;;;;;;17.23;11.27;;;;;;;;;;4917307;29;20107;-72
2021/03/20 15:20:49;;;;;;;25.35;15.05;;;;;;;;;;4900032;29;20119;-72
2021/03/20 15:23:15;;;;;;;15.30;10.25;;;;;;;;;;4900358;29;20028;-73
2021/03/20 15:25:41;;;;;;;27.30;16.27;;;;;;;;;;4917204;29;20039;-71
2021/03/20 15:28:08;;;;;;;27.55;16.35;;;;;;;;;;4916290;29;20083;-74
2021/03/20 15:30:38;;;;;;;49.90;28.15;;;;;;;;;;4899925;29;20153;-72
2021/03/20 15:33:05;;;;;;;23.55;14.52;;;;;;;;;;4914079;29;20063;-71
2021/03/20 15:35:31;;;;;;;51.75;26.80;;;;;;;;;;4898654;29;20032;-72
2021/03/20 15:37:57;;;;;;;19.48;12.07;;;;;;;;;;4919351;29;20024;-71
2021/03/20 15:40:26;;;;;;;34.45;19.95;;;;;;;;;;4919988;29;20033;-69
2021/03/20 15:42:52;;;;;;;22.58;12.85;;;;;;;;;;4903011;29;20025;-72
2021/03/20 15:45:18;;;;;;;38.30;22.50;;;;;;;;;;4903064;29;20047;-74
2021/03/20 15:47:45;;;;;;;25.45;13.48;;;;;;;;;;4903105;29;20036;-70
2021/03/20 15:50:13;;;;;;;23.40;12.95;;;;;;;;;;4902746;29;20035;-74
2021/03/20 15:52:40;;;;;;;32.65;17.30;;;;;;;;;;4903230;29;20488;-73
2021/03/20 15:55:06;;;;;;;19.45;11.52;;;;;;;;;;4902898;29;20388;-74
2021/03/20 15:57:33;;;;;;;25.73;15.00;;;;;;;;;;4918844;29;20484;-75
2021/03/20 15:59:59;;;;;;;23.17;14.82;;;;;;;;;;4902352;29;20024;-73
2021/03/20 16:02:25;;;;;;;20.90;12.27;;;;;;;;;;4918879;29;20043;-74
2021/03/20 16:04:51;;;;;;;22.27;13.57;;;;;;;;;;4919046;29;20072;-75
2021/03/20 16:07:17;;;;;;;33.28;17.58;;;;;;;;;;4899608;29;20024;-74
2021/03/20 16:09:44;;;;;;;21.85;12.93;;;;;;;;;;4918904;29;20107;-71
2021/03/20 16:12:10;;;;;;;26.83;15.23;;;;;;;;;;4903464;29;20428;-72
2021/03/20 16:14:36;;;;;;;35.70;19.27;;;;;;;;;;4903011;29;20032;-72
2021/03/20 16:17:02;;;;;;;24.02;15.48;;;;;;;;;;4919234;29;20059;-71
2021/03/20 16:19:28;;;;;;;29.88;17.83;;;;;;;;;;4919972;29;20057;-72
2021/03/20 16:21:54;;;;;;;31.25;19.27;;;;;;;;;;4902638;29;20117;-74
2021/03/20 16:24:22;;;;;;;28.85;17.20;;;;;;;;;;4919177;29;20052;-72
2021/03/20 16:26:49;;;;;;;33.60;19.80;;;;;;;;;;4919486;29;20072;-72
2021/03/20 16:29:15;;;;;;;88.43;46.70;;;;;;;;;;4920112;29;20020;-73
2021/03/20 16:31:42;;;;;;;21.00;14.20;;;;;;;;;;4901274;29;20494;-72
2021/03/20 16:34:08;;;;;;;23.40;13.73;;;;;;;;;;4902674;29;20388;-71
2021/03/20 16:36:34;;;;;;;28.20;16.55;;;;;;;;;;4902636;29;20024;-75
2021/03/20 16:39:01;;;;;;;35.63;21.45;;;;;;;;;;4919020;29;20178;-72
2021/03/20 16:41:30;;;;;;;50.20;27.17;;;;;;;;;;4900043;29;20032;-74
2021/03/20 16:43:57;;;;;;;43.95;24.00;;;;;;;;;;4901387;29;20031;-69
2021/03/20 16:46:23;;;;;;;55.88;30.77;;;;;;;;;;4919363;29;20024;-71
2021/03/20 16:48:49;;;;;;;26.20;17.40;;;;;;;;;;4902148;29;20119;-75
2021/03/20 16:51:16;;;;;;;26.27;17.35;;;;;;;;;;4902138;29;20132;-74
2021/03/20 16:53:42;;;;;;;59.08;32.92;;;;;;;;;;4902480;29;20075;-74
2021/03/20 16:56:10;;;;;;;28.60;17.80;;;;;;;;;;4902622;29;20376;-75
2021/03/20 16:58:36;;;;;;;40.38;23.95;;;;;;;;;;4901791;29;20024;-75
2021/03/20 17:01:03;;;;;;;33.30;20.33;;;;;;;;;;4903240;29;20025;-74
2021/03/20 17:03:29;;;;;;;28.48;16.95;;;;;;;;;;4902319;29;20052;-74
2021/03/20 17:05:55;;;;;;;32.67;20.38;;;;;;;;;;4902208;29;20031;-73
2021/03/20 17:08:21;;;;;;;59.65;29.67;;;;;;;;;;4918970;29;20051;-75
2021/03/20 17:10:48;;;;;;;33.63;20.83;;;;;;;;;;4918592;29;20548;-76
2021/03/20 17:13:15;;;;;;;41.47;23.77;;;;;;;;;;4918472;29;20387;-77
2021/03/20 17:15:42;;;;;;;58.15;31.15;;;;;;;;;;4901990;29;20046;-74
2021/03/20 17:18:17;;;;;;;40.40;23.15;;;;;;;;;;4902366;29;20052;-75
2021/03/20 17:20:44;;;;;;;45.47;26.73;;;;;;;;;;4901368;29;20044;-75
2021/03/20 17:23:10;;;;;;;41.42;24.35;;;;;;;;;;4902074;29;20192;-73
2021/03/20 17:25:36;;;;;;;38.38;22.30;;;;;;;;;;4902512;29;20374;-75
2021/03/20 17:28:03;;;;;;;69.88;35.05;;;;;;;;;;4901452;29;20408;-75
2021/03/20 17:30:32;;;;;;;51.50;27.83;;;;;;;;;;4900739;29;20025;-75
2021/03/20 17:32:58;;;;;;;35.45;20.13;;;;;;;;;;4901155;29;20035;-74
2021/03/20 17:35:24;;;;;;;42.67;24.50;;;;;;;;;;4917425;29;20028;-75
2021/03/20 17:37:52;;;;;;;34.35;21.50;;;;;;;;;;4901523;29;20045;-74
2021/03/20 17:40:19;;;;;;;37.70;21.60;;;;;;;;;;4900725;29;20024;-75
2021/03/20 17:42:45;;;;;;;65.15;33.70;;;;;;;;;;4901163;29;20060;-76
2021/03/20 17:45:12;;;;;;;68.40;36.33;;;;;;;;;;4901182;29;20078;-73
2021/03/20 17:47:38;;;;;;;39.88;21.38;;;;;;;;;;4918284;29;20035;-75
2021/03/20 17:50:05;;;;;;;61.95;32.47;;;;;;;;;;4901470;29;20237;-75
2021/03/20 17:52:31;;;;;;;34.92;20.33;;;;;;;;;;4900647;29;20135;-76
2021/03/20 17:54:58;;;;;;;39.70;22.65;;;;;;;;;;4900395;29;20071;-73
2021/03/20 17:57:24;;;;;;;34.72;21.63;;;;;;;;;;4901359;29;20024;-74
2021/03/20 17:59:51;;;;;;;38.47;20.70;;;;;;;;;;4900551;29;20028;-76
2021/03/20 18:02:17;;;;;;;46.88;26.15;;;;;;;;;;4900962;29;20472;-76
2021/03/20 18:04:43;;;;;;;46.45;24.33;;;;;;;;;;4900677;29;20036;-77
2021/03/20 18:07:09;;;;;;;46.03;23.88;;;;;;;;;;4900863;29;20068;-74
2021/03/20 18:09:35;;;;;;;61.58;31.40;;;;;;;;;;4900393;29;20028;-73
2021/03/20 18:12:02;;;;;;;65.50;31.27;;;;;;;;;;4901634;29;20032;-75
2021/03/20 18:14:28;;;;;;;43.33;23.75;;;;;;;;;;4900961;29;20028;-72
2021/03/20 18:16:54;;;;;;;81.00;33.42;;;;;;;;;;4900257;29;20050;-72
2021/03/20 18:19:20;;;;;;;49.78;24.70;;;;;;;;;;4882076;29;20519;-75
2021/03/20 18:21:46;;;;;;;56.70;29.45;;;;;;;;;;4879158;29;20124;-75
2021/03/20 18:24:12;;;;;;;41.65;22.65;;;;;;;;;;4878677;29;20116;-76
2021/03/20 18:26:38;;;;;;;45.88;26.65;;;;;;;;;;4879174;29;20029;-73
2021/03/20 18:29:05;;;;;;;47.70;27.58;;;;;;;;;;4878806;29;20110;-73
2021/03/20 18:31:31;;;;;;;52.88;27.15;;;;;;;;;;4879023;29;20393;-73
2021/03/20 18:33:58;;;;;;;85.72;35.33;;;;;;;;;;4878991;29;20029;-74
2021/03/20 18:36:25;;;;;;;40.72;23.98;;;;;;;;;;4879780;29;20465;-75
2021/03/20 18:38:52;;;;;;;98.18;38.13;;;;;;;;;;4879008;29;20483;-74
2021/03/20 18:41:20;;;;;;;51.35;24.67;;;;;;;;;;4878858;29;20430;-75
2021/03/20 18:43:47;;;;;;;59.10;28.35;;;;;;;;;;4878429;29;20139;-74
2021/03/20 18:46:14;;;;;;;68.80;31.27;;;;;;;;;;4878516;29;20021;-73
2021/03/20 18:48:40;;;;;;;54.60;27.13;;;;;;;;;;4878374;29;20026;-72
2021/03/20 18:51:07;;;;;;;38.58;20.98;;;;;;;;;;4879526;29;20429;-72
2021/03/20 18:53:33;;;;;;;45.97;25.15;;;;;;;;;;4878984;29;20482;-73
2021/03/20 18:55:59;;;;;;;37.15;21.50;;;;;;;;;;4878283;29;20029;-71
2021/03/20 18:58:27;;;;;;;37.17;20.25;;;;;;;;;;4879318;29;20108;-71
2021/03/20 19:00:54;;;;;;;53.88;27.27;;;;;;;;;;4877608;29;20081;-72
2021/03/20 19:03:20;;;;;;;57.72;28.92;;;;;;;;;;4877919;29;20103;-73
2021/03/20 19:05:48;;;;;;;38.72;21.50;;;;;;;;;;4878081;29;20040;-76
2021/03/20 19:08:18;;;;;;;88.07;44.20;;;;;;;;;;4875482;29;20426;-78
2021/03/20 19:10:44;;;;;;;67.68;37.72;;;;;;;;;;4879127;29;20430;-78
2021/03/20 19:13:10;;;;;;;33.58;20.15;;;;;;;;;;4882793;29;20032;-76
2021/03/20 19:15:37;;;;;;;32.13;18.40;;;;;;;;;;4882332;29;20033;-75
2021/03/20 19:18:04;;;;;;;42.50;23.90;;;;;;;;;;4881980;29;20049;-73
2021/03/20 19:20:32;;;;;;;35.53;20.70;;;;;;;;;;4882481;29;20065;-77
2021/03/20 19:22:58;;;;;;;38.15;20.27;;;;;;;;;;4882406;29;20362;-74
2021/03/20 19:25:24;;;;;;;41.55;22.38;;;;;;;;;;4882965;29;20028;-72
2021/03/20 19:27:50;;;;;;;35.38;19.27;;;;;;;;;;4881955;29;20483;-74
2021/03/20 19:30:20;;;;;;;35.53;21.77;;;;;;;;;;4883009;29;20107;-73
2021/03/20 19:32:46;;;;;;;36.15;20.17;;;;;;;;;;4881342;29;20036;-75
2021/03/20 19:35:13;;;;;;;42.60;24.17;;;;;;;;;;4881692;29;20117;-74
2021/03/20 19:37:39;;;;;;;55.03;29.98;;;;;;;;;;4881414;29;20021;-69
2021/03/20 19:40:06;;;;;;;61.10;29.27;;;;;;;;;;4882424;29;20029;-70
2021/03/20 19:42:32;;;;;;;42.97;23.98;;;;;;;;;;4881660;29;20060;-73
2021/03/20 19:44:59;;;;;;;39.05;21.65;;;;;;;;;;4881113;29;20040;-73
2021/03/20 19:47:26;;;;;;;38.50;23.27;;;;;;;;;;4880674;29;20028;-73
2021/03/20 19:49:53;;;;;;;44.97;24.95;;;;;;;;;;4880169;29;20025;-74
2021/03/20 19:52:21;;;;;;;45.47;24.73;;;;;;;;;;4880085;29;20033;-71
2021/03/20 19:54:49;;;;;;;48.17;27.02;;;;;;;;;;4879414;29;20029;-74
2021/03/20 19:57:16;;;;;;;36.33;21.75;;;;;;;;;;4880041;29;20031;-73
2021/03/20 19:59:43;;;;;;;36.25;21.17;;;;;;;;;;4881034;29;20059;-73
2021/03/20 20:02:10;;;;;;;36.70;21.98;;;;;;;;;;4879983;29;20139;-76
2021/03/20 20:04:36;;;;;;;46.00;25.42;;;;;;;;;;4880250;29;20056;-71
2021/03/20 20:07:02;;;;;;;37.08;20.38;;;;;;;;;;4882435;29;20025;-73
2021/03/20 20:09:28;;;;;;;38.72;20.67;;;;;;;;;;4880150;29;20025;-74
2021/03/20 20:11:54;;;;;;;39.60;21.38;;;;;;;;;;4880194;29;20055;-73
2021/03/20 20:14:21;;;;;;;41.60;21.10;;;;;;;;;;4880204;29;20029;-73
2021/03/20 20:16:47;;;;;;;26.15;15.20;;;;;;;;;;4880297;29;20017;-74
2021/03/20 20:19:14;;;;;;;34.08;19.13;;;;;;;;;;4879706;29;20057;-72
2021/03/20 20:21:40;;;;;;;31.23;18.00;;;;;;;;;;4879885;29;20500;-72
2021/03/20 20:24:07;;;;;;;27.58;16.52;;;;;;;;;;4879962;29;20486;-74
2021/03/20 20:26:33;;;;;;;30.95;17.27;;;;;;;;;;4877978;29;20032;-76
2021/03/20 20:29:02;;;;;;;31.77;18.23;;;;;;;;;;4880625;29;20449;-74
2021/03/20 20:31:28;;;;;;;29.90;15.18;;;;;;;;;;4880949;29;20061;-75
2021/03/20 20:33:54;;;;;;;27.83;16.25;;;;;;;;;;4880324;29;20132;-73
2021/03/20 20:36:21;;;;;;;27.85;16.50;;;;;;;;;;4880703;29;20057;-76
2021/03/20 20:38:48;;;;;;;29.20;16.65;;;;;;;;;;4880604;29;20041;-75
2021/03/20 20:41:14;;;;;;;32.72;17.63;;;;;;;;;;4880337;29;20021;-74
2021/03/20 20:43:43;;;;;;;32.10;18.73;;;;;;;;;;4880269;29;20169;-74
2021/03/20 20:46:10;;;;;;;25.48;15.05;;;;;;;;;;4880509;29;20025;-73
2021/03/20 20:48:37;;;;;;;28.75;16.60;;;;;;;;;;4880412;29;20025;-73
2021/03/20 20:51:05;;;;;;;35.35;18.85;;;;;;;;;;4878715;29;20070;-74
2021/03/20 20:53:32;;;;;;;25.35;15.55;;;;;;;;;;4879013;29;20055;-72
2021/03/20 20:55:59;;;;;;;24.25;14.10;;;;;;;;;;4880076;29;20392;-73
2021/03/20 20:58:25;;;;;;;23.90;14.13;;;;;;;;;;4880643;29;20029;-75
2021/03/20 21:00:54;;;;;;;26.73;14.45;;;;;;;;;;4879063;29;20124;-74
2021/03/20 21:03:22;;;;;;;29.25;17.48;;;;;;;;;;4879716;29;20072;-72
2021/03/20 21:05:49;;;;;;;25.75;14.95;;;;;;;;;;4879387;29;20131;-73
2021/03/20 21:08:16;;;;;;;27.30;14.88;;;;;;;;;;4879938;29;20478;-74
2021/03/20 21:10:42;;;;;;;25.70;14.23;;;;;;;;;;4878754;29;20026;-76
2021/03/20 21:13:08;;;;;;;27.52;14.85;;;;;;;;;;4879408;29;20093;-74
2021/03/20 21:15:35;;;;;;;27.63;15.48;;;;;;;;;;4879829;29;20040;-77
2021/03/20 21:18:01;;;;;;;26.70;15.35;;;;;;;;;;4879009;29;20108;-75
2021/03/20 21:20:30;;;;;;;30.15;16.50;;;;;;;;;;4879595;29;20401;-74
2021/03/20 21:22:57;;;;;;;28.65;15.82;;;;;;;;;;4879724;29;20029;-74
2021/03/20 21:25:23;;;;;;;27.65;14.95;;;;;;;;;;4879062;29;20496;-73
2021/03/20 21:27:49;;;;;;;31.13;16.42;;;;;;;;;;4879179;29;20145;-74
2021/03/20 21:30:16;;;;;;;22.00;13.25;;;;;;;;;;4880511;29;20073;-74
2021/03/20 21:32:42;;;;;;;30.52;15.50;;;;;;;;;;4878910;29;20025;-75
2021/03/20 21:35:09;;;;;;;25.98;15.23;;;;;;;;;;4879167;29;20377;-74
2021/03/20 21:37:36;;;;;;;21.92;12.93;;;;;;;;;;4879073;29;20029;-71
2021/03/20 21:40:06;;;;;;;31.05;15.82;;;;;;;;;;4880095;29;20025;-73
2021/03/20 21:42:32;;;;;;;28.15;16.63;;;;;;;;;;4878274;29;20043;-72
2021/03/20 21:44:58;;;;;;;27.77;14.73;;;;;;;;;;4878999;29;20061;-73